createdAt,value
2018-02-01T00:01:56.021Z,99.90
2018-02-01T00:04:25.086Z,99.90
2018-02-01T00:06:53.657Z,99.90
2018-02-01T00:09:21.949Z,99.90
2018-02-01T00:11:50.252Z,99.90
2018-02-01T00:14:18.840Z,99.90
2018-02-01T00:16:47.139Z,99.90
2018-02-01T00:19:15.422Z,99.90
2018-02-01T00:21:43.737Z,99.90
2018-02-01T00:24:12.288Z,99.90
2018-02-01T00:26:40.569Z,99.90
2018-02-01T00:29:08.853Z,99.90
2018-02-01T00:31:37.182Z,99.90
2018-02-01T00:34:05.492Z,99.90
2018-02-01T00:36:33.780Z,99.90
2018-02-01T00:39:02.112Z,98.40
2018-02-01T00:41:30.426Z,97.00
2018-02-01T00:43:58.790Z,95.40
2018-02-01T00:46:27.156Z,94.40
2018-02-01T00:48:56.234Z,98.60
2018-02-01T00:51:24.560Z,98.50
2018-02-01T00:53:52.845Z,96.00
2018-02-01T00:56:21.931Z,99.00
2018-02-01T00:58:50.226Z,99.10
2018-02-01T01:01:18.637Z,99.90
2018-02-01T01:03:47.689Z,98.90
2018-02-01T01:06:16.050Z,98.90
2018-02-01T01:08:44.336Z,99.70
2018-02-01T01:11:12.633Z,98.70
2018-02-01T01:13:40.987Z,97.00
2018-02-01T01:16:09.285Z,97.00
2018-02-01T01:18:37.806Z,97.20
2018-02-01T01:21:06.106Z,98.00
2018-02-01T01:23:34.382Z,99.90
2018-02-01T01:26:02.707Z,97.50
2018-02-01T01:28:31.004Z,97.50
2018-02-01T01:30:59.324Z,98.90
2018-02-01T01:33:28.393Z,99.90
2018-02-01T01:35:56.736Z,99.90
2018-02-01T01:38:25.851Z,97.40
2018-02-01T01:40:54.896Z,99.70
2018-02-01T01:43:23.240Z,99.80
2018-02-01T01:46:09.752Z,99.90
2018-02-01T01:48:38.848Z,99.60
2018-02-01T01:51:07.154Z,99.60
2018-02-01T01:53:36.249Z,98.20
2018-02-01T01:56:04.565Z,98.20
2018-02-01T01:58:33.618Z,95.70
2018-02-01T02:01:02.100Z,95.80
2018-02-01T02:03:30.389Z,97.60
2018-02-01T02:05:58.669Z,98.30
2018-02-01T02:08:27.024Z,99.30
2018-02-01T02:10:56.079Z,99.90
2018-02-01T02:13:24.421Z,99.90
2018-02-01T02:15:52.698Z,99.90
2018-02-01T02:18:21.041Z,98.10
2018-02-01T02:20:49.325Z,99.00
2018-02-01T02:23:17.613Z,99.60
2018-02-01T02:25:45.945Z,99.90
2018-02-01T02:28:14.261Z,99.90
2018-02-01T02:30:43.338Z,99.90
2018-02-01T02:33:11.626Z,99.90
2018-02-01T02:35:39.969Z,99.90
2018-02-01T02:38:08.251Z,99.90
2018-02-01T02:40:37.593Z,99.90
2018-02-01T02:43:05.966Z,99.90
2018-02-01T02:45:34.313Z,99.90
2018-02-01T02:48:02.660Z,99.90
2018-02-01T02:50:30.952Z,99.90
2018-02-01T02:52:59.259Z,99.90
2018-02-01T02:55:27.555Z,99.90
2018-02-01T02:57:55.921Z,99.90
2018-02-01T03:00:24.235Z,99.90
2018-02-01T03:02:52.559Z,99.90
2018-02-01T03:05:21.648Z,99.90
2018-02-01T03:07:49.971Z,99.90
2018-02-01T03:10:19.020Z,99.90
2018-02-01T03:12:47.373Z,99.90
2018-02-01T03:15:16.436Z,99.90
2018-02-01T03:17:51.582Z,99.90
2018-02-01T03:20:19.906Z,99.90
2018-02-01T03:22:48.969Z,99.90
2018-02-01T03:25:17.305Z,99.90
2018-02-01T03:27:46.372Z,99.90
2018-02-01T03:30:14.660Z,99.90
2018-02-01T03:32:43.010Z,99.90
2018-02-01T03:35:11.307Z,99.90
2018-02-01T03:37:40.440Z,99.90
2018-02-01T03:40:08.738Z,99.90
2018-02-01T03:42:37.057Z,99.90
2018-02-01T03:45:06.136Z,99.90
2018-02-01T03:47:34.460Z,99.90
2018-02-01T03:50:02.760Z,99.90
2018-02-01T03:52:31.121Z,99.90
2018-02-01T03:54:59.440Z,99.90
2018-02-01T03:57:28.488Z,99.90
2018-02-01T03:59:56.801Z,99.90
2018-02-01T04:02:25.122Z,99.90
2018-02-01T04:04:54.173Z,99.90
2018-02-01T04:07:22.518Z,99.90
2018-02-01T04:09:50.812Z,99.90
2018-02-01T04:12:19.872Z,99.90
2018-02-01T04:14:48.197Z,99.90
2018-02-01T04:17:16.547Z,99.90
2018-02-01T04:19:44.880Z,99.90
2018-02-01T04:22:13.987Z,99.90
2018-02-01T04:24:43.096Z,99.90
2018-02-01T04:27:12.213Z,99.90
2018-02-01T04:29:41.296Z,99.90
2018-02-01T04:32:09.630Z,99.90
2018-02-01T04:34:37.963Z,99.90
2018-02-01T04:37:06.258Z,99.90
2018-02-01T04:39:34.594Z,99.90
2018-02-01T04:42:02.900Z,99.90
2018-02-01T04:44:31.237Z,99.90
2018-02-01T04:46:59.562Z,99.90
2018-02-01T04:49:28.621Z,99.90
2018-02-01T04:51:57.048Z,99.90
2018-02-01T04:54:25.341Z,99.90
2018-02-01T04:56:54.447Z,99.90
2018-02-01T04:59:22.775Z,99.90
2018-02-01T05:01:51.093Z,99.90
2018-02-01T05:04:19.404Z,99.90
2018-02-01T05:06:47.692Z,99.90
2018-02-01T05:09:16.158Z,99.90
2018-02-01T05:11:44.472Z,99.90
2018-02-01T05:14:12.752Z,99.90
2018-02-01T05:16:41.119Z,98.20
2018-02-01T05:19:09.442Z,98.80
2018-02-01T05:21:37.733Z,99.90
2018-02-01T05:24:06.038Z,99.90
2018-02-01T05:26:34.393Z,99.90
2018-02-01T05:29:02.764Z,99.90
2018-02-01T05:31:31.103Z,99.90
2018-02-01T05:33:59.402Z,99.90
2018-02-01T05:36:28.525Z,99.90
2018-02-01T05:38:57.614Z,99.90
2018-02-01T05:41:25.926Z,99.90
2018-02-01T05:43:54.215Z,99.90
2018-02-01T05:46:22.516Z,99.90
2018-02-01T05:48:50.828Z,99.90
2018-02-01T05:51:19.137Z,99.90
2018-02-01T05:53:47.484Z,99.90
2018-02-01T05:56:15.931Z,99.90
2018-02-01T05:58:44.266Z,99.90
2018-02-01T06:01:12.564Z,99.90
2018-02-01T06:03:40.888Z,99.90
2018-02-01T06:06:09.556Z,99.90
2018-02-01T06:08:37.914Z,99.90
2018-02-01T06:11:06.968Z,99.90
2018-02-01T06:13:35.415Z,99.90
2018-02-01T06:16:04.496Z,99.90
2018-02-01T06:18:32.885Z,99.90
2018-02-01T06:21:01.173Z,99.90
2018-02-01T06:23:30.260Z,99.90
2018-02-01T06:25:58.597Z,99.90
2018-02-01T06:28:27.006Z,99.90
2018-02-01T06:30:56.068Z,99.90
2018-02-01T06:33:24.383Z,99.90
2018-02-01T06:35:52.736Z,99.90
2018-02-01T06:38:21.024Z,99.90
2018-02-01T06:40:49.319Z,99.90
2018-02-01T06:43:17.765Z,99.90
2018-02-01T06:45:46.861Z,99.90
2018-02-01T06:48:15.917Z,99.90
2018-02-01T06:50:44.288Z,99.90
2018-02-01T06:53:12.576Z,99.90
2018-02-01T06:55:40.864Z,99.90
2018-02-01T06:58:09.187Z,99.90
2018-02-01T07:00:42.933Z,99.90
2018-02-01T07:03:11.312Z,99.90
2018-02-01T07:05:39.648Z,99.90
2018-02-01T07:08:07.964Z,99.90
2018-02-01T07:10:36.325Z,99.90
2018-02-01T07:13:04.619Z,99.90
2018-02-01T07:15:32.946Z,99.90
2018-02-01T07:18:01.362Z,99.90
2018-02-01T07:20:29.667Z,99.90
2018-02-01T07:22:58.712Z,99.90
2018-02-01T07:25:27.050Z,99.90
2018-02-01T07:27:55.348Z,99.90
2018-02-01T07:30:24.448Z,99.90
2018-02-01T07:32:53.505Z,99.90
2018-02-01T07:35:21.878Z,99.90
2018-02-01T07:37:50.176Z,99.90
2018-02-01T07:40:18.465Z,99.90
2018-02-01T07:42:46.871Z,99.90
2018-02-01T07:45:15.161Z,99.90
2018-02-01T07:47:45.549Z,99.90
2018-02-01T07:50:13.843Z,99.90
2018-02-01T07:52:42.899Z,99.90
2018-02-01T07:55:11.276Z,99.90
2018-02-01T07:57:39.567Z,99.90
2018-02-01T08:00:07.972Z,99.90
2018-02-01T08:02:36.259Z,99.90
2018-02-01T08:05:04.543Z,99.90
2018-02-01T08:07:33.269Z,99.90
2018-02-01T08:10:01.554Z,99.90
2018-02-01T08:12:29.840Z,99.90
2018-02-01T08:14:58.247Z,98.50
2018-02-01T08:17:26.922Z,95.20
2018-02-01T08:19:55.191Z,88.30
2018-02-01T08:22:24.745Z,85.50
2018-02-01T08:24:53.043Z,77.40
2018-02-01T08:27:21.330Z,75.00
2018-02-01T08:29:49.728Z,71.20
2018-02-01T08:32:18.055Z,69.80
2018-02-01T08:34:47.121Z,65.90
2018-02-01T08:37:15.446Z,65.90
2018-02-01T08:39:44.664Z,59.70
2018-02-01T08:42:12.952Z,59.70
2018-02-01T08:44:42.084Z,61.10
2018-02-01T08:47:10.363Z,61.10
2018-02-01T08:49:38.645Z,59.10
2018-02-01T08:52:07.738Z,59.70
2018-02-01T08:54:36.819Z,61.00
2018-02-01T08:57:05.174Z,61.00
2018-02-01T08:59:33.480Z,58.70
2018-02-01T09:02:01.758Z,60.30
2018-02-01T09:04:30.378Z,61.40
2018-02-01T09:06:58.686Z,59.40
2018-02-01T09:09:26.965Z,60.30
2018-02-01T09:11:55.304Z,61.30
2018-02-01T09:14:23.584Z,63.40
2018-02-01T09:16:51.974Z,67.10
2018-02-01T09:19:21.044Z,70.70
2018-02-01T09:21:49.640Z,70.60
2018-02-01T09:24:17.941Z,71.70
2018-02-01T09:26:46.237Z,72.40
2018-02-01T09:29:14.584Z,73.00
2018-02-01T09:31:42.904Z,74.80
2018-02-01T09:34:11.185Z,75.50
2018-02-01T09:36:39.935Z,70.50
2018-02-01T09:39:08.229Z,70.30
2018-02-01T09:41:36.507Z,70.60
2018-02-01T09:44:05.918Z,72.00
2018-02-01T09:46:34.965Z,72.50
2018-02-01T09:49:03.295Z,72.60
2018-02-01T09:51:32.013Z,70.50
2018-02-01T09:54:01.069Z,71.40
2018-02-01T09:56:29.363Z,71.40
2018-02-01T09:58:57.725Z,71.90
2018-02-01T10:01:26.005Z,71.10
2018-02-01T10:03:54.378Z,71.60
2018-02-01T10:06:23.448Z,69.30
2018-02-01T10:08:51.782Z,69.30
2018-02-01T10:11:20.076Z,68.50
2018-02-01T10:13:48.773Z,68.40
2018-02-01T10:16:17.819Z,66.30
2018-02-01T10:18:46.162Z,66.30
2018-02-01T10:21:15.659Z,67.10
2018-02-01T10:23:43.950Z,67.10
2018-02-01T10:26:12.803Z,67.20
2018-02-01T10:28:41.108Z,67.60
2018-02-01T10:31:09.411Z,66.70
2018-02-01T10:33:37.830Z,67.50
2018-02-01T10:36:06.112Z,67.10
2018-02-01T10:38:34.511Z,68.90
2018-02-01T10:41:02.792Z,65.50
2018-02-01T10:43:31.078Z,66.10
2018-02-01T10:46:00.292Z,61.30
2018-02-01T10:48:29.343Z,59.00
2018-02-01T10:50:57.631Z,58.90
2018-02-01T10:53:26.269Z,60.30
2018-02-01T10:55:55.375Z,55.70
2018-02-01T10:58:24.447Z,55.30
2018-02-01T11:00:52.848Z,55.30
2018-02-01T11:03:21.274Z,55.90
2018-02-01T11:05:50.337Z,55.20
2018-02-01T11:10:52.863Z,57.60
2018-02-01T11:13:21.964Z,57.30
2018-02-01T11:15:51.448Z,56.70
2018-02-01T11:18:19.777Z,56.60
2018-02-01T11:20:55.780Z,57.70
2018-02-01T11:23:24.068Z,57.70
2018-02-01T11:25:52.417Z,57.90
2018-02-01T11:28:21.131Z,57.70
2018-02-01T11:30:49.431Z,58.50
2018-02-01T11:33:18.597Z,58.50
2018-02-01T11:35:46.889Z,57.60
2018-02-01T11:38:15.404Z,55.90
2018-02-01T11:40:44.399Z,56.30
2018-02-01T11:43:12.699Z,56.40
2018-02-01T11:45:40.997Z,57.30
2018-02-01T11:48:09.421Z,57.70
2018-02-01T11:50:37.791Z,56.70
2018-02-01T11:53:06.095Z,57.50
2018-02-01T11:55:35.200Z,58.10
2018-02-01T11:58:03.543Z,58.10
2018-02-01T12:00:31.864Z,58.10
2018-02-01T12:03:00.159Z,57.50
2018-02-01T12:05:28.913Z,57.30
2018-02-01T12:07:58.204Z,56.80
2018-02-01T12:10:27.636Z,53.20
2018-02-01T12:12:57.335Z,49.10
2018-02-01T12:15:25.683Z,49.10
2018-02-01T12:17:55.012Z,50.00
2018-02-01T12:20:23.308Z,50.80
2018-02-01T12:22:51.597Z,50.70
2018-02-01T12:25:19.969Z,51.50
2018-02-01T12:27:48.271Z,50.00
2018-02-01T12:30:17.976Z,50.10
2018-02-01T12:32:46.273Z,49.40
2018-02-01T12:35:14.554Z,51.00
2018-02-01T12:37:43.117Z,50.00
2018-02-01T12:40:12.183Z,50.60
2018-02-01T12:42:41.245Z,50.60
2018-02-01T12:45:09.528Z,50.70
2018-02-01T12:47:38.573Z,50.70
2018-02-01T12:50:07.741Z,50.70
2018-02-01T12:52:37.170Z,51.20
2018-02-01T12:55:05.800Z,51.20
2018-02-01T12:57:34.130Z,50.80
2018-02-01T13:00:04.266Z,51.80
2018-02-01T13:02:34.193Z,51.40
2018-02-01T13:05:03.237Z,51.40
2018-02-01T13:07:31.541Z,51.40
2018-02-01T13:09:59.936Z,51.10
2018-02-01T13:12:28.278Z,51.70
2018-02-01T13:14:57.845Z,52.60
2018-02-01T13:17:26.121Z,52.60
2018-02-01T13:19:54.437Z,51.70
2018-02-01T13:22:22.727Z,51.00
2018-02-01T13:24:51.007Z,52.60
2018-02-01T13:27:19.365Z,52.30
2018-02-01T13:29:47.669Z,52.00
2018-02-01T13:32:15.948Z,52.70
2018-02-01T13:34:44.604Z,51.90
2018-02-01T13:37:13.688Z,50.00
2018-02-01T13:39:41.976Z,50.00
2018-02-01T13:42:10.648Z,49.90
2018-02-01T13:44:38.943Z,49.30
2018-02-01T13:47:07.431Z,48.50
2018-02-01T13:49:36.875Z,49.20
2018-02-01T13:52:05.196Z,49.30
2018-02-01T13:54:34.260Z,49.70
2018-02-01T13:57:02.557Z,48.90
2018-02-01T13:59:32.423Z,48.90
2018-02-01T14:02:03.120Z,48.80
2018-02-01T14:04:31.402Z,48.80
2018-02-01T14:07:00.585Z,46.90
2018-02-01T14:09:29.757Z,48.50
2018-02-01T14:11:58.755Z,47.80
2018-02-01T14:14:27.045Z,48.80
2018-02-01T14:16:55.336Z,49.10
2018-02-01T14:19:23.768Z,50.00
2018-02-01T14:21:52.065Z,51.50
2018-02-01T14:24:21.120Z,51.70
2018-02-01T14:26:50.203Z,51.70
2018-02-01T14:29:18.524Z,52.50
2018-02-01T14:31:48.523Z,52.60
2018-02-01T14:34:16.868Z,52.80
2018-02-01T14:36:45.989Z,54.10
2018-02-01T14:39:14.306Z,54.10
2018-02-01T14:41:42.718Z,53.80
2018-02-01T14:44:12.610Z,53.70
2018-02-01T14:46:40.909Z,54.30
2018-02-01T14:49:09.201Z,53.60
2018-02-01T14:51:37.527Z,54.30
2018-02-01T14:54:05.808Z,53.70
2018-02-01T14:56:34.169Z,53.20
2018-02-01T14:59:02.458Z,54.00
2018-02-01T15:01:30.849Z,54.30
2018-02-01T15:03:59.158Z,54.30
2018-02-01T15:06:27.488Z,54.10
2018-02-01T15:08:55.931Z,54.60
2018-02-01T15:11:24.224Z,55.20
2018-02-01T15:13:52.510Z,55.20
2018-02-01T15:16:20.880Z,55.40
2018-02-01T15:18:49.318Z,56.00
2018-02-01T15:21:17.609Z,55.70
2018-02-01T15:23:46.097Z,56.00
2018-02-01T15:26:14.407Z,56.30
2018-02-01T15:28:44.324Z,58.90
2018-02-01T15:31:13.456Z,59.60
2018-02-01T15:33:42.506Z,60.60
2018-02-01T15:36:10.977Z,60.60
2018-02-01T15:38:39.425Z,61.40
2018-02-01T15:41:07.726Z,62.30
2018-02-01T15:43:36.016Z,63.10
2018-02-01T15:46:05.180Z,64.10
2018-02-01T15:48:33.504Z,64.20
2018-02-01T15:51:01.972Z,64.80
2018-02-01T15:53:30.477Z,65.20
2018-02-01T15:55:58.841Z,66.60
2018-02-01T15:58:27.187Z,65.40
2018-02-01T16:00:55.480Z,65.40
2018-02-01T16:03:25.365Z,66.00
2018-02-01T16:05:55.142Z,65.90
2018-02-01T16:08:24.647Z,65.50
2018-02-01T16:10:52.984Z,65.50
2018-02-01T16:13:21.340Z,64.60
2018-02-01T16:15:49.659Z,64.60
2018-02-01T16:18:18.185Z,64.80
2018-02-01T16:20:46.471Z,64.90
2018-02-01T16:23:14.822Z,64.60
2018-02-01T16:25:43.328Z,65.90
2018-02-01T16:28:11.641Z,65.80
2018-02-01T16:30:39.927Z,65.50
2018-02-01T16:33:08.522Z,65.80
2018-02-01T16:35:36.811Z,64.60
2018-02-01T16:38:05.092Z,65.50
2018-02-01T16:40:33.421Z,64.60
2018-02-01T16:43:02.037Z,65.20
2018-02-01T16:45:31.108Z,64.90
2018-02-01T16:47:59.396Z,64.80
2018-02-01T16:50:28.387Z,64.90
2018-02-01T16:52:56.696Z,65.20
2018-02-01T16:55:26.005Z,66.30
2018-02-01T16:57:54.300Z,65.80
2018-02-01T17:00:22.580Z,65.00
2018-02-01T17:02:51.069Z,64.80
2018-02-01T17:05:19.363Z,64.70
2018-02-01T17:07:47.730Z,65.00
2018-02-01T17:10:16.069Z,64.60
2018-02-01T17:12:44.385Z,64.60
2018-02-01T17:15:12.705Z,65.30
2018-02-01T17:17:41.165Z,64.60
2018-02-01T17:20:09.459Z,64.80
2018-02-01T17:22:37.799Z,64.60
2018-02-01T17:25:06.680Z,65.10
2018-02-01T17:27:34.991Z,65.10
2018-02-01T17:30:03.287Z,64.70
2018-02-01T17:32:32.588Z,65.30
2018-02-01T17:35:01.064Z,65.30
2018-02-01T17:37:29.354Z,66.00
2018-02-01T17:39:57.658Z,67.10
2018-02-01T17:42:25.992Z,66.60
2018-02-01T17:44:55.056Z,67.90
2018-02-01T17:47:23.995Z,67.90
2018-02-01T17:49:52.288Z,69.20
2018-02-01T17:52:21.389Z,70.20
2018-02-01T17:54:50.455Z,70.70
2018-02-01T17:57:18.763Z,70.70
2018-02-01T17:59:47.824Z,71.60
2018-02-01T18:02:16.889Z,73.70
2018-02-01T18:04:45.185Z,76.20
2018-02-01T18:07:13.476Z,77.80
2018-02-01T18:09:41.802Z,79.90
2018-02-01T18:12:10.081Z,80.00
2018-02-01T18:14:39.153Z,81.90
2018-02-01T18:17:07.639Z,81.90
2018-02-01T18:19:36.081Z,80.10
2018-02-01T18:22:04.386Z,79.50
2018-02-01T18:24:32.719Z,81.00
2018-02-01T18:27:01.003Z,84.30
2018-02-01T18:29:29.332Z,84.30
2018-02-01T18:31:58.424Z,86.70
2018-02-01T18:34:26.708Z,86.70
2018-02-01T18:36:55.093Z,88.10
2018-02-01T18:39:23.382Z,90.20
2018-02-01T18:41:51.726Z,95.80
2018-02-01T18:44:20.056Z,96.50
2018-02-01T18:46:48.347Z,94.60
2018-02-01T18:49:16.688Z,97.80
2018-02-01T18:51:45.020Z,98.50
2018-02-01T18:54:13.375Z,98.30
2018-02-01T18:56:41.659Z,98.80
2018-02-01T18:59:09.988Z,99.90
2018-02-01T19:01:38.264Z,99.90
2018-02-01T19:04:06.565Z,99.90
2018-02-01T19:06:34.895Z,99.90
2018-02-01T19:09:03.951Z,99.90
2018-02-01T19:11:32.304Z,99.90
2018-02-01T19:14:00.600Z,99.90
2018-02-01T19:16:28.923Z,99.90
2018-02-01T19:18:57.257Z,99.90
2018-02-01T19:21:25.548Z,99.90
2018-02-01T19:23:54.636Z,99.90
2018-02-01T19:26:22.923Z,99.90
2018-02-01T19:28:51.281Z,99.90
2018-02-01T19:31:19.639Z,99.90
2018-02-01T19:33:48.748Z,99.90
2018-02-01T19:36:17.045Z,99.90
2018-02-01T19:38:45.364Z,99.90
2018-02-01T19:41:13.700Z,99.90
2018-02-01T19:43:42.040Z,99.90
2018-02-01T19:46:10.372Z,99.90
2018-02-01T19:48:39.514Z,99.90
2018-02-01T19:51:07.878Z,99.90
2018-02-01T19:53:36.271Z,99.90
2018-02-01T19:56:04.556Z,99.90
2018-02-01T19:58:32.867Z,99.90
2018-02-01T20:01:01.949Z,99.90
2018-02-01T20:03:30.276Z,99.90
2018-02-01T20:05:59.378Z,99.90
2018-02-01T20:08:28.528Z,99.90
2018-02-01T20:10:56.833Z,99.90
2018-02-01T20:13:25.176Z,99.90
2018-02-01T20:15:54.297Z,99.90
2018-02-01T20:18:22.653Z,99.90
2018-02-01T20:20:50.972Z,99.70
2018-02-01T20:23:19.261Z,99.90
2018-02-01T20:25:47.584Z,99.90
2018-02-01T20:28:15.891Z,99.90
2018-02-01T20:30:44.173Z,99.90
2018-02-01T20:33:12.556Z,99.90
2018-02-01T20:35:41.317Z,99.90
2018-02-01T20:38:09.966Z,99.90
2018-02-01T20:40:38.823Z,99.90
2018-02-01T20:43:07.217Z,99.80
2018-02-01T20:45:35.535Z,99.60
2018-02-01T20:48:03.881Z,99.90
2018-02-01T20:50:32.935Z,99.90
2018-02-01T20:53:01.327Z,99.90
2018-02-01T20:55:29.647Z,99.90
2018-02-01T20:57:58.761Z,99.90
2018-02-01T21:00:27.045Z,99.90
2018-02-01T21:02:55.369Z,99.90
2018-02-01T21:05:23.821Z,99.90
2018-02-01T21:07:52.097Z,99.90
2018-02-01T21:10:20.485Z,99.90
2018-02-01T21:12:48.776Z,99.90
2018-02-01T21:15:18.093Z,99.70
2018-02-01T21:17:46.403Z,99.50
2018-02-01T21:20:15.144Z,99.60
2018-02-01T21:22:43.468Z,98.70
2018-02-01T21:25:12.091Z,98.80
2018-02-01T21:27:41.160Z,97.80
2018-02-01T21:30:09.452Z,97.80
2018-02-01T21:32:37.815Z,97.80
2018-02-01T21:35:06.212Z,96.90
2018-02-01T21:37:34.540Z,97.90
2018-02-01T21:40:03.009Z,97.60
2018-02-01T21:42:31.360Z,97.40
2018-02-01T21:44:59.707Z,98.00
2018-02-01T21:47:28.058Z,98.00
2018-02-01T21:49:56.348Z,98.20
2018-02-01T21:52:24.710Z,98.50
2018-02-01T21:54:53.759Z,98.10
2018-02-01T21:57:22.080Z,98.10
2018-02-01T21:59:50.373Z,98.60
2018-02-01T22:02:18.801Z,99.20
2018-02-01T22:04:47.875Z,99.90
2018-02-01T22:07:16.176Z,99.90
2018-02-01T22:09:44.523Z,99.90
2018-02-01T22:12:12.828Z,99.90
2018-02-01T22:14:41.439Z,99.90
2018-02-01T22:17:09.722Z,99.90
2018-02-01T22:19:38.010Z,99.90
2018-02-01T22:22:06.349Z,99.90
2018-02-01T22:24:34.866Z,99.90
2018-02-01T22:27:03.162Z,99.90
2018-02-01T22:29:31.464Z,99.90
2018-02-01T22:31:59.781Z,99.60
2018-02-01T22:34:28.121Z,99.90
2018-02-01T22:36:56.442Z,99.90
2018-02-01T22:39:24.725Z,99.90
2018-02-01T22:41:53.069Z,99.90
2018-02-01T22:44:22.172Z,99.90
2018-02-01T22:46:51.292Z,99.90
2018-02-01T22:49:19.586Z,99.90
2018-02-01T22:51:47.921Z,99.90
2018-02-01T22:54:17.014Z,99.90
2018-02-01T22:56:45.360Z,99.90
2018-02-01T22:59:14.465Z,99.90
2018-02-01T23:01:43.538Z,99.00
2018-02-01T23:04:11.878Z,99.10
2018-02-01T23:06:40.256Z,97.30
2018-02-01T23:09:09.423Z,96.70
2018-02-01T23:11:37.761Z,96.80
2018-02-01T23:14:06.826Z,98.60
2018-02-01T23:16:35.120Z,98.60
2018-02-01T23:19:03.444Z,99.10
2018-02-01T23:21:32.589Z,98.60
2018-02-01T23:24:00.913Z,98.60
2018-02-01T23:26:29.202Z,97.00
2018-02-01T23:28:57.520Z,97.40
2018-02-01T23:31:26.598Z,97.40
2018-02-01T23:33:54.946Z,97.40
2018-02-01T23:36:23.346Z,98.60
2018-02-01T23:38:51.648Z,98.10
2018-02-01T23:41:20.095Z,97.80
2018-02-01T23:43:49.159Z,96.00
2018-02-01T23:46:17.460Z,96.00
2018-02-01T23:48:45.805Z,97.10
2018-02-01T23:51:14.186Z,97.10
2018-02-01T23:53:43.248Z,99.10
2018-02-01T23:56:11.580Z,99.10
2018-02-01T23:58:40.640Z,99.80
